Time;durP1;ratioP1;P1;durP2;ratioP2;P2;SDS_P1;SDS_P2;PMS_P1;PMS_P2;Temp;Humidity;BMP_temperature;BMP_pressure;BME280_temperature;BME280_humidity;BME280_pressure;Samples;Min_cycle;Max_cycle;Signal;HPM_P1;HPM_P2
2023/10/03 00:00:34;;;;;;;8.02;5.50;;;;;;;12.55;65.04;95725.31;5085903;28;20105;-71
2023/10/03 00:03:00;;;;;;;8.55;5.13;;;;;;;12.38;65.05;95712.75;5074246;28;20052;-70
2023/10/03 00:05:28;;;;;;;9.55;5.60;;;;;;;12.41;65.19;95728.97;5070493;28;20521;-70
2023/10/03 00:07:56;;;;;;;8.18;5.70;;;;;;;12.22;65.96;95723.47;5068721;28;20103;-70
2023/10/03 00:10:22;;;;;;;7.40;5.32;;;;;;;11.94;66.36;95698.66;5086904;28;20029;-70
2023/10/03 00:12:48;;;;;;;9.70;4.97;;;;;;;12.45;65.22;95725.19;5085277;28;20489;-71
2023/10/03 00:15:21;;;;;;;10.05;5.70;;;;;;;12.42;65.08;95730.59;5059723;28;20193;-71
2023/10/03 00:17:47;;;;;;;10.15;5.43;;;;;;;12.45;64.94;95739.97;5065399;28;20028;-71
2023/10/03 00:20:13;;;;;;;8.98;5.10;;;;;;;12.38;65.06;95730.97;5086277;28;20024;-71
2023/10/03 00:22:39;;;;;;;6.85;5.18;;;;;;;12.16;66.14;95729.97;5077782;28;20020;-71
2023/10/03 00:25:07;;;;;;;9.75;5.13;;;;;;;12.09;66.31;95739.19;5069357;28;20077;-71
2023/10/03 00:27:35;;;;;;;8.68;5.47;;;;;;;12.17;66.18;95733.41;5089593;28;20036;-71
2023/10/03 00:30:01;;;;;;;11.20;5.10;;;;;;;12.14;66.15;95737.06;5069551;28;20040;-70
2023/10/03 00:32:26;;;;;;;8.75;5.13;;;;;;;11.68;67.17;95732.63;5070537;28;20126;-71
2023/10/03 00:34:52;;;;;;;9.68;5.07;;;;;;;11.77;66.84;95738.91;5061095;28;20380;-71
2023/10/03 00:37:18;;;;;;;7.93;5.20;;;;;;;11.73;67.33;95733.13;5082492;28;20035;-70
2023/10/03 00:39:43;;;;;;;7.65;5.00;;;;;;;11.63;67.24;95717.31;5080891;28;20028;-71
2023/10/03 00:42:10;;;;;;;7.00;5.00;;;;;;;11.69;66.97;95738.66;5061014;28;20506;-71
2023/10/03 00:44:37;;;;;;;8.18;5.28;;;;;;;11.51;67.04;95720.81;5087809;28;20035;-70
2023/10/03 00:47:06;;;;;;;7.53;5.00;;;;;;;11.49;67.27;95734.88;5058481;28;20057;-71
2023/10/03 00:49:33;;;;;;;10.50;4.95;;;;;;;11.31;67.44;95711.84;5088839;28;20186;-71
2023/10/03 00:51:58;;;;;;;6.80;5.28;;;;;;;11.30;68.30;95722.34;5064514;28;20024;-71
2023/10/03 00:54:24;;;;;;;8.48;5.00;;;;;;;11.28;68.48;95726.81;5068498;28;20040;-71
2023/10/03 00:56:50;;;;;;;9.93;4.97;;;;;;;11.09;68.48;95712.53;5088523;28;20032;-70
2023/10/03 00:59:15;;;;;;;8.00;5.35;;;;;;;11.13;68.83;95718.34;5089750;28;20395;-70
2023/10/03 01:01:41;;;;;;;6.03;4.90;;;;;;;11.20;69.07;95724.78;5086660;28;20097;-71
2023/10/03 01:04:12;;;;;;;9.27;5.65;;;;;;;11.13;69.63;95729.59;5066853;28;20090;-70
2023/10/03 01:06:38;;;;;;;8.75;5.53;;;;;;;11.29;69.72;95731.94;5053898;28;20024;-71
2023/10/03 01:09:09;;;;;;;9.00;5.68;;;;;;;11.18;70.09;95716.25;5086481;28;20039;-71
2023/10/03 01:11:36;;;;;;;8.52;5.55;;;;;;;11.25;70.27;95734.84;5088603;28;20421;-71
2023/10/03 01:14:01;;;;;;;9.35;5.75;;;;;;;11.04;71.11;95743.25;5088272;28;20044;-70
2023/10/03 01:16:33;;;;;;;8.35;5.38;;;;;;;11.29;70.34;95734.53;5089951;28;20025;-71
2023/10/03 01:19:07;;;;;;;8.45;5.60;;;;;;;11.22;70.96;95735.91;5052965;28;20417;-70
2023/10/03 01:21:34;;;;;;;10.50;5.18;;;;;;;11.07;70.50;95724.00;5073931;28;20032;-71
2023/10/03 01:24:00;;;;;;;7.80;5.80;;;;;;;11.19;71.21;95734.34;5074450;28;20293;-70
2023/10/03 01:26:25;;;;;;;9.35;6.05;;;;;;;11.00;71.57;95722.75;5088399;28;20027;-70
2023/10/03 01:28:51;;;;;;;11.20;5.38;;;;;;;11.14;71.09;95722.59;5069947;28;20028;-70
2023/10/03 01:31:17;;;;;;;8.75;5.60;;;;;;;11.30;70.61;95732.75;5083058;28;20490;-70
2023/10/03 01:33:42;;;;;;;11.00;6.00;;;;;;;11.46;69.74;95732.50;5065580;28;20041;-71
2023/10/03 01:36:08;;;;;;;11.40;6.15;;;;;;;11.35;69.86;95723.69;5076828;28;20020;-70
2023/10/03 01:38:33;;;;;;;9.43;5.63;;;;;;;11.35;69.46;95720.25;5084101;28;20040;-70
2023/10/03 01:41:00;;;;;;;13.20;6.07;;;;;;;11.20;69.71;95727.41;5089046;28;20476;-70
2023/10/03 01:43:26;;;;;;;9.75;5.82;;;;;;;11.33;69.41;95735.13;5086527;28;20036;-70
2023/10/03 01:45:52;;;;;;;9.52;5.95;;;;;;;11.23;69.68;95726.31;5086820;28;20031;-70
2023/10/03 01:48:18;;;;;;;10.43;5.88;;;;;;;11.20;69.86;95717.00;5068869;28;20119;-70
2023/10/03 01:50:44;;;;;;;10.70;6.95;;;;;;;11.24;69.80;95730.59;5089353;28;20032;-70
2023/10/03 01:53:11;;;;;;;7.88;5.20;;;;;;;11.20;69.48;95724.78;5087619;28;20377;-70
2023/10/03 01:55:37;;;;;;;8.90;5.72;;;;;;;11.05;69.56;95713.69;5078351;28;20486;-71
2023/10/03 01:58:03;;;;;;;9.80;5.28;;;;;;;11.09;69.11;95717.75;5088440;28;20070;-71
2023/10/03 02:00:30;;;;;;;11.00;6.10;;;;;;;10.92;69.49;95725.88;5078960;28;20131;-71
2023/10/03 02:03:05;;;;;;;10.27;5.78;;;;;;;10.82;70.40;95719.69;5081126;28;20016;-70
2023/10/03 02:05:33;;;;;;;8.93;4.68;;;;;;;10.49;70.35;95684.69;5081242;28;20472;-71
2023/10/03 02:07:58;;;;;;;9.32;5.15;;;;;;;10.75;70.56;95724.44;5066706;28;20061;-71
2023/10/03 02:10:24;;;;;;;7.43;5.15;;;;;;;10.64;70.52;95696.63;5070984;28;20028;-71
2023/10/03 02:12:51;;;;;;;9.77;5.80;;;;;;;10.62;70.64;95708.88;5083508;28;20474;-70
2023/10/03 02:15:26;;;;;;;8.55;5.43;;;;;;;10.69;70.30;95704.09;5053241;28;20514;-70
2023/10/03 02:17:53;;;;;;;7.93;5.15;;;;;;;10.72;70.32;95709.91;5085262;28;20516;-71
2023/10/03 02:20:25;;;;;;;9.65;5.65;;;;;;;10.61;70.78;95712.41;5055412;28;20032;-71
2023/10/03 02:22:54;;;;;;;7.13;4.88;;;;;;;10.70;70.63;95717.00;5060567;28;20036;-71
2023/10/03 02:25:24;;;;;;;7.65;5.00;;;;;;;10.65;70.55;95700.88;5075409;28;20115;-71
2023/10/03 02:27:50;;;;;;;8.35;5.20;;;;;;;10.63;70.43;95697.56;5071708;28;20033;-70
2023/10/03 02:30:23;;;;;;;8.80;5.65;;;;;;;10.64;70.75;95703.56;5055555;28;20028;-70
2023/10/03 02:32:52;;;;;;;8.27;5.28;;;;;;;10.52;71.33;95703.47;5084410;28;20024;-70
2023/10/03 02:35:21;;;;;;;9.60;5.55;;;;;;;10.63;71.30;95705.34;5071750;28;20024;-71
2023/10/03 02:37:47;;;;;;;9.50;5.45;;;;;;;10.50;71.29;95697.56;5056554;28;20029;-71
2023/10/03 02:40:14;;;;;;;7.28;4.85;;;;;;;10.53;71.39;95699.13;5072508;28;20036;-70
2023/10/03 02:42:40;;;;;;;8.27;5.00;;;;;;;10.56;71.44;95698.06;5090562;28;20039;-70
2023/10/03 02:45:06;;;;;;;7.90;5.00;;;;;;;10.69;71.20;95697.13;5076514;28;20422;-70
2023/10/03 02:47:34;;;;;;;7.35;5.10;;;;;;;10.38;71.29;95654.25;5072607;28;20048;-71
2023/10/03 02:49:59;;;;;;;10.55;5.45;;;;;;;10.74;70.89;95682.03;5074458;28;20029;-71
2023/10/03 02:52:25;;;;;;;7.47;4.90;;;;;;;10.81;70.97;95692.00;5057513;28;20051;-71
2023/10/03 02:54:51;;;;;;;7.85;5.38;;;;;;;10.95;70.34;95695.31;5055283;28;20043;-71
2023/10/03 02:57:18;;;;;;;8.57;5.22;;;;;;;10.81;70.44;95674.66;5089417;28;20517;-71
2023/10/03 02:59:44;;;;;;;8.15;4.72;;;;;;;10.96;70.34;95694.38;5061042;28;20060;-71
2023/10/03 03:02:14;;;;;;;7.63;4.75;;;;;;;10.87;70.48;95696.81;5073675;28;20104;-71
2023/10/03 03:04:41;;;;;;;6.95;4.38;;;;;;;10.85;70.62;95703.88;5072164;28;20531;-71
2023/10/03 03:07:06;;;;;;;7.05;4.65;;;;;;;10.89;70.59;95695.75;5072266;28;20046;-71
2023/10/03 03:09:36;;;;;;;7.47;5.13;;;;;;;10.82;70.84;95691.09;5083804;28;20160;-71
2023/10/03 03:12:04;;;;;;;9.05;5.30;;;;;;;10.88;70.63;95694.06;5080494;28;20028;-71
2023/10/03 03:14:30;;;;;;;11.07;5.25;;;;;;;10.95;70.06;95697.91;5055433;28;20072;-71
2023/10/03 03:16:56;;;;;;;8.48;5.65;;;;;;;10.96;70.30;95696.97;5071539;28;20016;-71
2023/10/03 03:19:23;;;;;;;10.52;5.30;;;;;;;10.84;70.95;95702.22;5059148;28;20032;-70
2023/10/03 03:21:50;;;;;;;8.75;4.93;;;;;;;10.65;70.74;95681.88;5072059;28;20414;-71
2023/10/03 03:24:21;;;;;;;11.48;5.47;;;;;;;10.89;70.54;95705.28;5076138;28;20164;-70
2023/10/03 03:26:52;;;;;;;8.80;4.57;;;;;;;10.71;70.19;95684.84;5088387;28;20024;-71
2023/10/03 03:29:20;;;;;;;7.45;4.90;;;;;;;10.67;70.45;95699.00;5073656;28;20060;-71
2023/10/03 03:31:46;;;;;;;8.35;5.18;;;;;;;10.82;69.80;95706.69;5073144;28;20102;-70
2023/10/03 03:34:12;;;;;;;8.50;5.05;;;;;;;10.68;70.03;95705.88;5063860;28;20521;-71
2023/10/03 03:36:40;;;;;;;9.38;5.68;;;;;;;10.54;70.25;95707.75;5075749;28;20028;-70
2023/10/03 03:39:13;;;;;;;9.70;6.07;;;;;;;10.68;70.05;95725.81;5073622;28;20085;-70
2023/10/03 03:41:39;;;;;;;12.25;8.00;;;;;;;10.45;70.36;95711.81;5060374;28;20028;-71
2023/10/03 03:44:11;;;;;;;8.85;5.95;;;;;;;10.53;70.46;95714.72;5075266;28;20115;-70
2023/10/03 03:46:37;;;;;;;8.73;5.80;;;;;;;10.59;69.92;95722.09;5067444;28;20066;-71
2023/10/03 03:49:04;;;;;;;9.25;5.63;;;;;;;10.54;69.74;95723.34;5071521;28;20056;-70
2023/10/03 03:51:30;;;;;;;8.43;5.85;;;;;;;10.33;69.49;95708.25;5070543;28;20025;-70
2023/10/03 03:53:55;;;;;;;9.05;5.65;;;;;;;10.35;69.75;95732.38;5072279;28;20426;-70
2023/10/03 03:56:21;;;;;;;9.15;5.95;;;;;;;10.17;69.98;95715.38;5066847;28;20399;-70
2023/10/03 03:58:48;;;;;;;11.40;5.57;;;;;;;10.18;70.10;95727.44;5071441;28;20475;-71
2023/10/03 04:01:14;;;;;;;9.90;6.10;;;;;;;10.05;70.78;95741.22;5071290;28;20105;-70
2023/10/03 04:03:43;;;;;;;9.95;5.47;;;;;;;9.90;70.21;95725.84;5072503;28;20032;-70
2023/10/03 04:06:09;;;;;;;11.38;5.60;;;;;;;9.82;69.94;95724.59;5091227;28;20051;-70
2023/10/03 04:08:35;;;;;;;8.45;5.65;;;;;;;9.63;70.37;95709.38;5073840;28;20028;-70
2023/10/03 04:11:02;;;;;;;8.80;5.72;;;;;;;9.27;72.16;95732.47;5076405;28;20028;-70
2023/10/03 04:13:30;;;;;;;11.60;7.68;;;;;;;9.46;72.79;95734.75;5076549;28;20040;-71
2023/10/03 04:15:58;;;;;;;12.05;7.13;;;;;;;9.38;72.81;95728.28;5071983;28;20104;-71
2023/10/03 04:18:23;;;;;;;12.85;6.97;;;;;;;9.47;73.02;95744.19;5077171;28;20054;-70
2023/10/03 04:20:49;;;;;;;12.20;6.50;;;;;;;9.37;73.88;95739.59;5089646;28;20032;-71
2023/10/03 04:23:14;;;;;;;9.57;6.75;;;;;;;9.45;74.18;95748.66;5070451;28;20460;-70
2023/10/03 04:25:40;;;;;;;9.65;6.57;;;;;;;9.39;74.16;95745.50;5086599;28;20040;-70
2023/10/03 04:28:05;;;;;;;10.80;7.32;;;;;;;9.38;75.11;95746.44;5085188;28;20101;-70
2023/10/03 04:30:31;;;;;;;14.60;7.47;;;;;;;9.62;75.53;95745.81;5079054;28;20028;-70
2023/10/03 04:32:57;;;;;;;10.95;7.22;;;;;;;9.75;75.78;95738.91;5079202;28;20032;-70
2023/10/03 04:35:23;;;;;;;11.80;7.43;;;;;;;9.75;76.18;95744.09;5075963;28;20032;-70
2023/10/03 04:37:51;;;;;;;11.23;7.28;;;;;;;9.88;76.16;95738.91;5084041;28;20028;-70
2023/10/03 04:40:37;;;;;;;10.60;7.22;;;;;;;9.93;75.97;95728.25;5070535;28;20033;-70
2023/10/03 04:43:11;;;;;;;10.48;6.68;;;;;;;9.84;75.91;95716.72;5078427;28;20570;-70
2023/10/03 04:45:43;;;;;;;11.23;7.20;;;;;;;9.99;75.45;95726.06;5056130;28;20036;-70
2023/10/03 04:48:10;;;;;;;11.07;7.32;;;;;;;9.99;75.37;95731.25;5081260;28;20032;-71
2023/10/03 04:50:36;;;;;;;10.93;7.40;;;;;;;10.03;75.18;95726.72;5087724;28;20036;-70
2023/10/03 04:53:02;;;;;;;12.20;7.03;;;;;;;10.06;75.09;95731.69;5062766;28;20494;-70
2023/10/03 04:55:28;;;;;;;11.88;7.57;;;;;;;10.02;75.12;95725.03;5079655;28;20024;-70
2023/10/03 04:57:55;;;;;;;11.45;7.75;;;;;;;10.14;74.98;95728.56;5066480;28;20536;-70
2023/10/03 05:00:21;;;;;;;11.75;6.93;;;;;;;10.16;74.86;95727.53;5088505;28;20044;-70
2023/10/03 05:02:48;;;;;;;11.98;7.57;;;;;;;10.19;74.80;95735.13;5055544;28;20436;-70
2023/10/03 05:05:18;;;;;;;9.98;6.70;;;;;;;10.20;74.62;95739.41;5086444;28;20055;-70
2023/10/03 05:07:44;;;;;;;12.00;7.32;;;;;;;10.25;74.17;95734.75;5086643;28;20032;-70
2023/10/03 05:10:10;;;;;;;9.02;6.32;;;;;;;10.56;73.33;95737.03;5087899;28;20470;-70
2023/10/03 05:12:35;;;;;;;10.63;7.35;;;;;;;10.41;73.93;95741.50;5082407;28;20073;-70
2023/10/03 05:15:00;;;;;;;13.07;7.15;;;;;;;10.31;73.77;95719.69;5084891;28;20047;-70
2023/10/03 05:17:27;;;;;;;11.25;6.72;;;;;;;10.26;73.35;95723.41;5085452;28;20019;-70
2023/10/03 05:19:53;;;;;;;10.57;7.00;;;;;;;10.28;73.61;95731.13;5085636;28;20055;-70
2023/10/03 05:22:20;;;;;;;11.93;6.97;;;;;;;10.24;73.84;95745.22;5073649;28;20032;-70
2023/10/03 05:24:49;;;;;;;16.15;8.57;;;;;;;10.34;73.28;95741.13;5088202;28;20042;-70
2023/10/03 05:27:15;;;;;;;14.38;8.10;;;;;;;10.23;73.37;95748.75;5077388;28;20024;-70
2023/10/03 05:29:40;;;;;;;15.57;8.00;;;;;;;10.50;72.24;95756.47;5091090;28;20042;-70
2023/10/03 05:32:06;;;;;;;13.27;7.75;;;;;;;10.53;72.43;95756.28;5068501;28;20028;-70
2023/10/03 05:34:32;;;;;;;16.17;8.52;;;;;;;10.37;72.48;95738.31;5066483;28;20036;-70
2023/10/03 05:36:57;;;;;;;15.80;7.75;;;;;;;10.34;72.92;95748.06;5084468;28;20502;-71
2023/10/03 05:39:25;;;;;;;14.32;7.63;;;;;;;10.39;72.75;95753.75;5082569;28;20034;-70
2023/10/03 05:41:56;;;;;;;16.73;8.38;;;;;;;10.47;72.66;95756.69;5070384;28;20486;-70
2023/10/03 05:44:21;;;;;;;12.95;8.02;;;;;;;10.27;72.84;95751.06;5081117;28;20089;-69
2023/10/03 05:46:52;;;;;;;11.43;8.00;;;;;;;10.29;73.50;95758.75;5067609;28;20111;-72
2023/10/03 05:49:18;;;;;;;13.98;8.70;;;;;;;10.17;74.47;95759.53;5086485;28;20478;-71
2023/10/03 05:51:43;;;;;;;12.68;8.38;;;;;;;10.19;73.61;95735.13;5072452;28;20035;-73
2023/10/03 05:54:09;;;;;;;15.68;8.40;;;;;;;10.01;73.68;95711.22;5077913;28;20039;-75
2023/10/03 05:56:34;;;;;;;16.27;7.85;;;;;;;10.63;73.15;95752.13;5048977;28;20032;-73
2023/10/03 05:59:01;;;;;;;17.15;8.20;;;;;;;10.88;71.64;95745.25;5083845;28;20040;-73
2023/10/03 06:01:27;;;;;;;13.40;8.45;;;;;;;10.92;71.32;95747.53;5067070;28;20071;-73
2023/10/03 06:03:56;;;;;;;13.50;7.60;;;;;;;11.18;70.55;95753.50;5053294;28;20451;-71
2023/10/03 06:06:22;;;;;;;15.15;7.47;;;;;;;11.31;70.31;95763.03;5064385;28;20469;-71
2023/10/03 06:08:49;;;;;;;12.63;8.27;;;;;;;11.58;69.71;95763.66;5080430;28;20060;-71
2023/10/03 06:11:17;;;;;;;15.15;8.07;;;;;;;11.90;68.12;95765.75;5080529;28;20158;-69
2023/10/03 06:13:44;;;;;;;13.15;8.15;;;;;;;11.99;67.70;95765.06;5068532;28;20033;-70
2023/10/03 06:16:14;;;;;;;15.32;7.72;;;;;;;12.08;67.62;95760.97;5086428;28;20034;-72
2023/10/03 06:18:40;;;;;;;11.25;7.18;;;;;;;12.38;66.82;95762.25;5080248;28;20452;-71
2023/10/03 06:21:09;;;;;;;11.85;7.78;;;;;;;12.24;66.28;95742.44;5065337;28;20487;-70
2023/10/03 06:23:34;;;;;;;18.10;7.93;;;;;;;12.38;66.11;95750.03;5083444;28;20386;-71
2023/10/03 06:26:01;;;;;;;16.83;7.65;;;;;;;12.54;65.70;95757.53;5069668;28;21052;-70
2023/10/03 06:28:28;;;;;;;16.92;9.25;;;;;;;12.57;65.93;95769.50;5085656;28;20040;-71
2023/10/03 06:30:54;;;;;;;13.95;8.90;;;;;;;12.83;65.31;95770.13;5084212;28;20420;-70
2023/10/03 06:33:20;;;;;;;10.73;7.15;;;;;;;12.70;64.56;95757.19;5088774;28;20040;-73
2023/10/03 06:35:45;;;;;;;13.40;7.35;;;;;;;12.97;64.34;95751.63;5055761;28;20040;-72
2023/10/03 06:38:10;;;;;;;16.33;7.28;;;;;;;13.12;63.97;95763.50;5084836;28;20417;-73
2023/10/03 06:40:36;;;;;;;9.43;6.65;;;;;;;12.90;64.06;95751.28;5081302;28;20035;-72
2023/10/03 06:43:02;;;;;;;14.07;7.38;;;;;;;12.87;64.48;95748.91;5061545;28;20024;-72
2023/10/03 06:45:27;;;;;;;11.57;6.50;;;;;;;13.30;63.35;95757.81;5077541;28;20029;-72
2023/10/03 06:47:55;;;;;;;15.23;6.57;;;;;;;13.48;63.67;95769.38;5078374;28;20455;-73
2023/10/03 06:50:23;;;;;;;15.38;6.70;;;;;;;13.51;63.04;95750.06;5081538;28;20028;-72
2023/10/03 06:52:48;;;;;;;13.73;7.53;;;;;;;14.15;61.39;95760.53;5060900;28;20013;-73
2023/10/03 06:55:15;;;;;;;11.43;6.75;;;;;;;13.98;61.25;95758.44;5076909;28;20029;-73
2023/10/03 06:57:41;;;;;;;11.40;6.60;;;;;;;14.37;60.79;95759.56;5081393;28;20113;-72
2023/10/03 07:00:13;;;;;;;10.18;7.03;;;;;;;15.74;57.34;95756.63;5073287;28;20080;-72
2023/10/03 07:02:39;;;;;;;10.10;6.50;;;;;;;17.15;52.80;95743.75;5082315;28;20020;-72
2023/10/03 07:05:05;;;;;;;11.23;7.57;;;;;;;17.96;50.20;95769.31;5084353;28;20041;-72
2023/10/03 07:07:30;;;;;;;10.13;7.03;;;;;;;18.67;47.99;95773.69;5080875;28;20522;-70
2023/10/03 07:09:55;;;;;;;12.05;7.40;;;;;;;19.13;46.59;95762.97;5054749;28;20029;-71
2023/10/03 07:12:22;;;;;;;11.88;7.90;;;;;;;19.03;46.36;95755.19;5087324;28;20054;-70
2023/10/03 07:14:48;;;;;;;15.07;7.15;;;;;;;19.05;46.92;95766.38;5084825;28;20039;-71
2023/10/03 07:17:14;;;;;;;12.85;7.60;;;;;;;18.64;47.62;95768.75;5091341;28;20039;-70
2023/10/03 07:19:40;;;;;;;11.73;7.80;;;;;;;17.91;48.89;95782.06;5089006;28;20409;-71
2023/10/03 07:22:06;;;;;;;12.20;7.53;;;;;;;18.01;48.77;95766.22;5079075;28;20028;-71
2023/10/03 07:24:31;;;;;;;12.88;7.88;;;;;;;17.37;50.76;95792.44;5084951;28;20432;-70
2023/10/03 07:27:01;;;;;;;13.70;7.68;;;;;;;17.43;50.61;95785.75;5089495;28;20024;-71
2023/10/03 07:29:27;;;;;;;11.38;7.80;;;;;;;17.15;51.29;95795.41;5089276;28;20044;-70
2023/10/03 07:31:53;;;;;;;10.98;7.72;;;;;;;16.99;51.94;95782.88;5091213;28;20024;-71
2023/10/03 07:34:18;;;;;;;13.07;7.95;;;;;;;16.75;52.49;95799.09;5091082;28;20032;-71
2023/10/03 07:36:45;;;;;;;12.50;8.30;;;;;;;16.74;52.29;95786.94;5087491;28;20115;-72
2023/10/03 07:39:11;;;;;;;15.98;8.23;;;;;;;16.92;52.62;95790.53;5071102;28;20068;-71
2023/10/03 07:41:36;;;;;;;10.90;8.00;;;;;;;17.40;51.74;95788.69;5090238;28;20028;-71
2023/10/03 07:44:04;;;;;;;14.23;8.00;;;;;;;17.52;50.66;95781.44;5078089;28;20168;-71
2023/10/03 07:46:30;;;;;;;15.18;9.73;;;;;;;17.51;51.23;95792.94;5070519;28;20032;-70
2023/10/03 07:48:55;;;;;;;13.68;8.77;;;;;;;17.10;51.55;95777.47;5087145;28;20406;-71
2023/10/03 07:51:29;;;;;;;17.10;9.20;;;;;;;17.17;51.71;95785.63;5071119;28;20067;-70
2023/10/03 07:53:55;;;;;;;15.80;8.90;;;;;;;16.97;51.92;95769.94;5084208;28;20032;-71
2023/10/03 07:56:30;;;;;;;17.45;9.30;;;;;;;17.14;51.44;95791.16;5090895;28;20153;-71
2023/10/03 07:58:56;;;;;;;13.18;9.20;;;;;;;17.51;51.45;95779.78;5089676;28;20121;-71
2023/10/03 08:01:25;;;;;;;16.27;8.55;;;;;;;17.75;50.99;95782.69;5090939;28;20052;-70
2023/10/03 08:03:54;;;;;;;15.13;9.20;;;;;;;17.92;49.80;95782.91;5072799;28;20587;-71
2023/10/03 08:06:25;;;;;;;12.18;9.10;;;;;;;17.70;50.25;95784.94;5090174;28;20020;-71
2023/10/03 08:08:59;;;;;;;15.68;9.75;;;;;;;17.98;49.78;95783.13;5091596;28;20036;-71
2023/10/03 08:11:30;;;;;;;15.85;9.38;;;;;;;17.51;50.76;95774.53;5083968;28;20039;-71
2023/10/03 08:13:55;;;;;;;15.90;9.77;;;;;;;17.68;50.65;95776.38;5092407;28;20032;-71
2023/10/03 08:16:22;;;;;;;17.88;9.60;;;;;;;17.98;50.47;95772.63;5087935;28;20032;-71
2023/10/03 08:18:57;;;;;;;14.32;9.13;;;;;;;17.80;49.95;95780.50;5090652;28;20043;-71
2023/10/03 08:21:28;;;;;;;14.68;9.25;;;;;;;17.75;50.21;95768.75;5087366;28;20577;-71
2023/10/03 08:23:57;;;;;;;14.05;9.02;;;;;;;17.46;50.40;95767.09;5060798;28;20210;-71
2023/10/03 08:26:24;;;;;;;11.73;7.68;;;;;;;17.28;50.68;95760.97;5070143;28;20040;-71
2023/10/03 08:28:59;;;;;;;11.63;7.93;;;;;;;17.54;50.19;95771.63;5083583;28;20042;-71
2023/10/03 08:31:28;;;;;;;14.43;8.07;;;;;;;17.20;50.93;95774.81;5074489;28;20527;-71
2023/10/03 08:33:56;;;;;;;14.63;8.00;;;;;;;16.88;51.49;95768.16;5089060;28;20517;-71
2023/10/03 08:36:23;;;;;;;12.27;8.32;;;;;;;16.74;52.21;95760.69;5089778;28;20523;-71
2023/10/03 08:38:49;;;;;;;15.98;9.05;;;;;;;16.32;53.03;95753.19;5086186;28;20031;-70
2023/10/03 08:41:22;;;;;;;17.02;8.48;;;;;;;16.94;51.33;95759.72;5090206;28;20505;-70
2023/10/03 08:43:51;;;;;;;12.75;8.32;;;;;;;17.09;51.75;95772.38;5087833;28;20047;-71
2023/10/03 08:46:17;;;;;;;12.98;8.32;;;;;;;16.98;51.43;95761.06;5057695;28;20401;-70
2023/10/03 08:48:43;;;;;;;14.38;7.55;;;;;;;17.24;51.23;95760.41;5073017;28;20040;-71
2023/10/03 08:51:13;;;;;;;11.82;7.78;;;;;;;17.30;50.63;95759.84;5071997;28;20042;-71
2023/10/03 08:53:41;;;;;;;13.52;7.85;;;;;;;17.47;50.55;95746.91;5074098;28;20036;-71
2023/10/03 08:56:08;;;;;;;13.38;8.70;;;;;;;17.69;49.74;95741.25;5086939;28;20541;-71
2023/10/03 08:58:34;;;;;;;11.20;7.25;;;;;;;18.09;49.47;95751.34;5080596;28;20032;-71
2023/10/03 09:00:59;;;;;;;13.63;7.38;;;;;;;17.91;49.38;95742.63;5071885;28;20524;-71
2023/10/03 09:03:29;;;;;;;13.05;7.63;;;;;;;17.86;49.69;95748.34;5078976;28;20036;-72
2023/10/03 09:05:58;;;;;;;16.85;7.78;;;;;;;17.83;49.66;95742.59;5072901;28;20028;-71
2023/10/03 09:08:26;;;;;;;12.65;7.68;;;;;;;18.06;48.73;95721.94;5071904;28;20048;-71
2023/10/03 09:10:51;;;;;;;12.65;7.50;;;;;;;18.03;48.95;95743.25;5078001;28;20109;-71
2023/10/03 09:13:24;;;;;;;13.77;8.35;;;;;;;18.00;49.31;95746.19;5076682;28;20033;-71
2023/10/03 09:15:51;;;;;;;14.55;8.15;;;;;;;17.87;49.68;95743.91;5075059;28;20027;-72
2023/10/03 09:18:21;;;;;;;16.40;8.15;;;;;;;18.02;49.52;95724.00;5086928;28;20031;-71
2023/10/03 09:20:49;;;;;;;;;;;;;;;18.15;49.19;95731.53;5090546;28;20028;-71
2023/10/03 09:23:17;;;;;;;12.63;7.03;;;;;;;18.43;48.08;95726.97;5087389;28;19924;-71
2023/10/03 09:25:48;;;;;;;10.32;7.18;;;;;;;18.38;48.38;95707.38;5068483;28;20036;-71
2023/10/03 09:28:14;;;;;;;11.63;7.00;;;;;;;18.62;49.14;95731.22;5089476;28;20040;-71
2023/10/03 09:30:39;;;;;;;11.18;7.05;;;;;;;18.61;48.29;95734.84;5071252;28;20028;-71
2023/10/03 09:33:17;;;;;;;10.65;6.47;;;;;;;18.84;47.04;95726.47;5064228;28;20017;-71
2023/10/03 09:36:01;;;;;;;9.77;6.05;;;;;;;18.92;47.25;95722.06;5049099;28;20474;-71
2023/10/03 09:38:42;;;;;;;11.23;6.60;;;;;;;18.56;46.91;95705.53;5090408;28;20474;-71
2023/10/03 09:41:07;;;;;;;11.07;6.80;;;;;;;18.65;47.52;95715.13;5072548;28;20474;-71
2023/10/03 09:43:33;;;;;;;10.30;6.25;;;;;;;18.64;47.60;95713.50;5076324;28;20048;-71
2023/10/03 09:46:00;;;;;;;11.00;6.32;;;;;;;18.82;47.03;95712.63;5076289;28;20093;-71
2023/10/03 09:48:25;;;;;;;11.80;6.53;;;;;;;18.78;46.89;95719.16;5090403;28;20039;-71
2023/10/03 09:50:55;;;;;;;13.13;6.25;;;;;;;18.72;46.78;95691.63;5089229;28;20254;-71
2023/10/03 09:53:27;;;;;;;10.10;5.82;;;;;;;18.75;46.21;95708.00;5069664;28;20025;-71
2023/10/03 09:55:54;;;;;;;10.70;5.80;;;;;;;18.94;45.67;95700.84;5088850;28;20425;-71
2023/10/03 09:58:24;;;;;;;11.20;6.22;;;;;;;18.84;46.13;95690.44;5087627;28;20110;-71
2023/10/03 10:00:53;;;;;;;11.25;6.32;;;;;;;18.93;46.58;95696.56;5088140;28;20075;-72
2023/10/03 10:03:26;;;;;;;8.55;5.85;;;;;;;19.00;46.47;95700.22;5070809;28;20502;-71
2023/10/03 10:06:12;;;;;;;9.43;6.10;;;;;;;19.43;45.76;95693.13;5071676;28;20115;-72
2023/10/03 10:08:41;;;;;;;11.02;6.22;;;;;;;19.36;45.94;95689.47;5085148;28;20064;-71
2023/10/03 10:11:09;;;;;;;12.18;6.45;;;;;;;19.22;45.85;95677.75;5088685;28;20032;-71
2023/10/03 10:13:37;;;;;;;9.93;5.97;;;;;;;19.26;45.86;95683.53;5089011;28;20131;-71
2023/10/03 10:16:28;;;;;;;8.63;5.32;;;;;;;19.41;45.15;95680.09;5086289;28;20050;-71
2023/10/03 10:18:49;;;;;;;9.45;5.55;;;;;;;19.36;44.75;95679.78;5087065;28;20048;-71
2023/10/03 10:21:23;;;;;;;9.55;5.00;;;;;;;19.43;44.25;95675.50;5089102;28;20455;-71
2023/10/03 10:24:15;;;;;;;12.52;5.45;;;;;;;19.48;44.00;95667.13;5091864;28;20056;-72
2023/10/03 10:26:41;;;;;;;7.68;5.10;;;;;;;19.65;44.10;95670.63;5091218;28;20024;-71
2023/10/03 10:29:11;;;;;;;6.53;4.97;;;;;;;19.76;43.41;95659.81;5074758;28;20051;-72
2023/10/03 10:31:44;;;;;;;8.40;5.20;;;;;;;19.73;44.11;95654.03;5075713;28;20410;-71
2023/10/03 10:34:21;;;;;;;8.98;5.32;;;;;;;19.80;44.06;95657.66;5076300;28;20044;-71
2023/10/03 10:37:15;;;;;;;11.77;5.53;;;;;;;19.78;44.30;95642.03;5088188;28;20094;-71
2023/10/03 10:40:17;;;;;;;8.57;4.85;;;;;;;19.88;43.66;95641.84;5067699;28;20039;-71
2023/10/03 10:42:55;;;;;;;10.18;5.32;;;;;;;19.83;43.26;95636.22;5091684;28;20031;-72
2023/10/03 10:45:21;;;;;;;11.07;5.07;;;;;;;19.75;42.95;95626.53;5075628;28;20126;-71
2023/10/03 10:47:49;;;;;;;8.52;5.93;;;;;;;19.74;42.97;95650.41;5088514;28;20078;-72
2023/10/03 10:50:17;;;;;;;8.40;5.68;;;;;;;19.82;43.29;95634.59;5091804;28;20413;-71
2023/10/03 10:53:02;;;;;;;8.50;5.53;;;;;;;20.04;42.35;95614.66;5092696;28;20398;-71
2023/10/03 10:55:27;;;;;;;9.00;5.15;;;;;;;20.24;42.33;95621.22;5090925;28;20028;-71
2023/10/03 10:58:12;;;;;;;13.65;5.30;;;;;;;20.23;42.28;95618.75;5090528;28;20031;-72
2023/10/03 11:00:38;;;;;;;11.90;5.03;;;;;;;20.17;42.59;95619.41;5086155;28;20127;-71
2023/10/03 11:03:04;;;;;;;11.75;5.03;;;;;;;20.19;42.41;95610.34;5063183;28;20099;-72
2023/10/03 11:05:47;;;;;;;10.07;5.72;;;;;;;20.14;42.75;95598.66;5072863;28;20032;-72
2023/10/03 11:08:12;;;;;;;9.65;5.22;;;;;;;20.29;41.62;95602.25;5084350;28;20060;-72
2023/10/03 11:10:53;;;;;;;9.65;5.38;;;;;;;20.36;41.21;95591.84;5086440;28;20092;-72
2023/10/03 11:13:23;;;;;;;9.20;5.43;;;;;;;20.16;41.71;95608.03;5073932;28;20038;-71
2023/10/03 11:15:49;;;;;;;8.60;5.05;;;;;;;20.18;42.33;95599.97;5090487;28;20452;-72
2023/10/03 11:18:15;;;;;;;10.68;4.70;;;;;;;20.22;42.33;95585.44;5083795;28;20086;-72
2023/10/03 11:20:41;;;;;;;8.27;4.47;;;;;;;20.40;42.26;95586.06;5071616;28;20025;-71
2023/10/03 11:23:15;;;;;;;11.55;5.43;;;;;;;20.36;41.87;95587.38;5069154;28;20036;-72
2023/10/03 11:25:51;;;;;;;10.32;4.75;;;;;;;20.48;40.41;95578.13;5091573;28;20221;-72
2023/10/03 11:28:18;;;;;;;8.35;5.50;;;;;;;20.64;40.96;95589.66;5090602;28;20061;-72
2023/10/03 11:30:43;;;;;;;9.50;4.95;;;;;;;20.63;40.58;95570.34;5093153;28;20378;-72
2023/10/03 11:33:09;;;;;;;8.32;5.45;;;;;;;20.83;40.69;95573.41;5083837;28;20067;-72